sensor_id;sensor_type;location;lat;lon;timestamp;temperature;humidity
57709;SHT35;42558;52.388;13.390;2023-04-01T00:01:42;8.80;91.47
57709;SHT35;42558;52.388;13.390;2023-04-01T00:04:10;8.82;91.50
57709;SHT35;42558;52.388;13.390;2023-04-01T00:06:38;8.82;91.51
57709;SHT35;42558;52.388;13.390;2023-04-01T00:09:07;8.81;91.50
57709;SHT35;42558;52.388;13.390;2023-04-01T00:11:35;8.81;91.52
57709;SHT35;42558;52.388;13.390;2023-04-01T00:14:04;8.82;91.55
57709;SHT35;42558;52.388;13.390;2023-04-01T00:16:36;8.80;91.50
57709;SHT35;42558;52.388;13.390;2023-04-01T00:19:06;8.80;91.51
57709;SHT35;42558;52.388;13.390;2023-04-01T00:21:36;8.80;91.50
57709;SHT35;42558;52.388;13.390;2023-04-01T00:24:06;8.79;91.51
57709;SHT35;42558;52.388;13.390;2023-04-01T00:26:36;8.80;91.54
57709;SHT35;42558;52.388;13.390;2023-04-01T00:29:06;8.81;91.60
57709;SHT35;42558;52.388;13.390;2023-04-01T00:31:36;8.82;91.61
57709;SHT35;42558;52.388;13.390;2023-04-01T00:34:06;8.84;91.67
57709;SHT35;42558;52.388;13.390;2023-04-01T00:36:36;8.82;91.59
57709;SHT35;42558;52.388;13.390;2023-04-01T00:39:06;8.82;91.59
57709;SHT35;42558;52.388;13.390;2023-04-01T00:41:36;8.81;91.58
57709;SHT35;42558;52.388;13.390;2023-04-01T00:44:40;8.76;91.61
57709;SHT35;42558;52.388;13.390;2023-04-01T00:47:02;8.74;91.69
57709;SHT35;42558;52.388;13.390;2023-04-01T00:49:31;8.73;91.77
57709;SHT35;42558;52.388;13.390;2023-04-01T00:52:10;8.76;91.81
57709;SHT35;42558;52.388;13.390;2023-04-01T00:54:47;8.80;91.89
57709;SHT35;42558;52.388;13.390;2023-04-01T00:57:29;8.82;91.95
57709;SHT35;42558;52.388;13.390;2023-04-01T01:00:08;8.82;91.91
57709;SHT35;42558;52.388;13.390;2023-04-01T01:02:44;8.82;91.90
57709;SHT35;42558;52.388;13.390;2023-04-01T01:05:17;8.81;91.93
57709;SHT35;42558;52.388;13.390;2023-04-01T01:08:15;8.83;92.00
57709;SHT35;42558;52.388;13.390;2023-04-01T01:10:57;8.82;92.00
57709;SHT35;42558;52.388;13.390;2023-04-01T01:13:36;8.80;91.99
57709;SHT35;42558;52.388;13.390;2023-04-01T01:16:41;8.80;92.00
57709;SHT35;42558;52.388;13.390;2023-04-01T01:30:51;8.85;92.20
57709;SHT35;42558;52.388;13.390;2023-04-01T01:33:51;8.86;92.19
57709;SHT35;42558;52.388;13.390;2023-04-01T01:36:50;8.87;92.18
57709;SHT35;42558;52.388;13.390;2023-04-01T01:39:30;8.88;92.18
57709;SHT35;42558;52.388;13.390;2023-04-01T01:42:05;8.88;92.12
57709;SHT35;42558;52.388;13.390;2023-04-01T01:44:44;8.89;92.10
57709;SHT35;42558;52.388;13.390;2023-04-01T01:47:18;8.90;92.07
57709;SHT35;42558;52.388;13.390;2023-04-01T01:49:51;8.90;92.06
57709;SHT35;42558;52.388;13.390;2023-04-01T01:52:26;8.91;92.07
57709;SHT35;42558;52.388;13.390;2023-04-01T01:54:57;8.90;92.01
57709;SHT35;42558;52.388;13.390;2023-04-01T01:57:34;8.90;92.03
57709;SHT35;42558;52.388;13.390;2023-04-01T02:00:09;8.90;92.05
57709;SHT35;42558;52.388;13.390;2023-04-01T02:02:44;8.86;92.06
57709;SHT35;42558;52.388;13.390;2023-04-01T02:05:19;8.87;92.10
57709;SHT35;42558;52.388;13.390;2023-04-01T02:08:10;8.86;92.18
57709;SHT35;42558;52.388;13.390;2023-04-01T02:11:00;8.86;92.20
57709;SHT35;42558;52.388;13.390;2023-04-01T02:13:39;8.86;92.20
57709;SHT35;42558;52.388;13.390;2023-04-01T02:16:31;8.86;92.20
57709;SHT35;42558;52.388;13.390;2023-04-01T02:19:08;8.86;92.19
57709;SHT35;42558;52.388;13.390;2023-04-01T02:21:42;8.85;92.15
57709;SHT35;42558;52.388;13.390;2023-04-01T02:24:13;8.85;92.18
57709;SHT35;42558;52.388;13.390;2023-04-01T02:26:45;8.85;92.18
57709;SHT35;42558;52.388;13.390;2023-04-01T02:29:16;8.85;92.14
57709;SHT35;42558;52.388;13.390;2023-04-01T02:31:50;8.85;92.12
57709;SHT35;42558;52.388;13.390;2023-04-01T02:34:22;8.86;92.10
57709;SHT35;42558;52.388;13.390;2023-04-01T02:36:54;8.86;92.10
57709;SHT35;42558;52.388;13.390;2023-04-01T02:39:26;8.87;92.09
57709;SHT35;42558;52.388;13.390;2023-04-01T02:41:56;8.86;92.08
57709;SHT35;42558;52.388;13.390;2023-04-01T02:44:26;8.87;92.09
57709;SHT35;42558;52.388;13.390;2023-04-01T02:46:54;8.87;92.08
57709;SHT35;42558;52.388;13.390;2023-04-01T02:49:23;8.89;92.06
57709;SHT35;42558;52.388;13.390;2023-04-01T02:51:51;8.90;92.10
57709;SHT35;42558;52.388;13.390;2023-04-01T02:54:20;8.90;92.10
57709;SHT35;42558;52.388;13.390;2023-04-01T02:56:48;8.88;92.01
57709;SHT35;42558;52.388;13.390;2023-04-01T02:59:17;8.87;92.02
57709;SHT35;42558;52.388;13.390;2023-04-01T03:01:45;8.88;92.01
57709;SHT35;42558;52.388;13.390;2023-04-01T03:04:14;8.88;92.00
57709;SHT35;42558;52.388;13.390;2023-04-01T03:06:42;8.87;92.00
57709;SHT35;42558;52.388;13.390;2023-04-01T03:09:11;8.87;92.00
57709;SHT35;42558;52.388;13.390;2023-04-01T03:11:39;8.88;92.00
57709;SHT35;42558;52.388;13.390;2023-04-01T03:14:07;8.89;92.02
57709;SHT35;42558;52.388;13.390;2023-04-01T03:16:36;8.88;92.00
57709;SHT35;42558;52.388;13.390;2023-04-01T03:19:04;8.89;92.00
57709;SHT35;42558;52.388;13.390;2023-04-01T03:21:33;8.89;92.00
57709;SHT35;42558;52.388;13.390;2023-04-01T03:24:01;8.90;92.00
57709;SHT35;42558;52.388;13.390;2023-04-01T03:26:30;8.91;92.02
57709;SHT35;42558;52.388;13.390;2023-04-01T03:28:58;8.92;92.00
57709;SHT35;42558;52.388;13.390;2023-04-01T03:31:27;8.92;92.00
57709;SHT35;42558;52.388;13.390;2023-04-01T03:33:55;8.92;91.95
57709;SHT35;42558;52.388;13.390;2023-04-01T03:36:23;8.91;91.92
57709;SHT35;42558;52.388;13.390;2023-04-01T03:38:52;8.91;91.90
57709;SHT35;42558;52.388;13.390;2023-04-01T03:41:20;8.92;91.90
57709;SHT35;42558;52.388;13.390;2023-04-01T03:43:49;8.92;91.89
57709;SHT35;42558;52.388;13.390;2023-04-01T03:46:18;8.93;91.90
57709;SHT35;42558;52.388;13.390;2023-04-01T03:48:49;8.93;91.89
57709;SHT35;42558;52.388;13.390;2023-04-01T03:51:17;8.95;91.87
57709;SHT35;42558;52.388;13.390;2023-04-01T03:53:45;8.96;91.89
57709;SHT35;42558;52.388;13.390;2023-04-01T03:56:14;8.96;91.83
57709;SHT35;42558;52.388;13.390;2023-04-01T03:58:42;8.97;91.81
57709;SHT35;42558;52.388;13.390;2023-04-01T04:01:15;8.98;91.81
57709;SHT35;42558;52.388;13.390;2023-04-01T04:03:51;8.99;91.83
57709;SHT35;42558;52.388;13.390;2023-04-01T04:06:22;8.99;91.85
57709;SHT35;42558;52.388;13.390;2023-04-01T04:08:53;8.99;91.81
57709;SHT35;42558;52.388;13.390;2023-04-01T04:11:22;8.99;91.84
57709;SHT35;42558;52.388;13.390;2023-04-01T04:13:50;9.00;91.81
57709;SHT35;42558;52.388;13.390;2023-04-01T04:16:19;8.99;91.80
57709;SHT35;42558;52.388;13.390;2023-04-01T04:18:47;8.99;91.80
57709;SHT35;42558;52.388;13.390;2023-04-01T04:21:15;8.99;91.81
57709;SHT35;42558;52.388;13.390;2023-04-01T04:23:44;8.99;91.80
57709;SHT35;42558;52.388;13.390;2023-04-01T04:26:13;8.98;91.81
57709;SHT35;42558;52.388;13.390;2023-04-01T04:28:44;8.99;91.80
57709;SHT35;42558;52.388;13.390;2023-04-01T04:31:21;9.00;91.82
57709;SHT35;42558;52.388;13.390;2023-04-01T04:33:54;9.00;91.87
57709;SHT35;42558;52.388;13.390;2023-04-01T04:36:24;9.00;91.88
57709;SHT35;42558;52.388;13.390;2023-04-01T04:38:53;9.02;91.90
57709;SHT35;42558;52.388;13.390;2023-04-01T04:41:23;9.01;91.90
57709;SHT35;42558;52.388;13.390;2023-04-01T04:43:55;9.01;91.91
57709;SHT35;42558;52.388;13.390;2023-04-01T04:46:27;9.02;91.98
57709;SHT35;42558;52.388;13.390;2023-04-01T04:48:57;9.03;91.99
57709;SHT35;42558;52.388;13.390;2023-04-01T04:51:27;9.03;92.00
57709;SHT35;42558;52.388;13.390;2023-04-01T04:53:57;9.03;92.00
57709;SHT35;42558;52.388;13.390;2023-04-01T04:56:27;9.03;92.00
57709;SHT35;42558;52.388;13.390;2023-04-01T04:58:57;9.03;92.00
57709;SHT35;42558;52.388;13.390;2023-04-01T05:01:28;9.05;92.01
57709;SHT35;42558;52.388;13.390;2023-04-01T05:03:58;9.05;92.01
57709;SHT35;42558;52.388;13.390;2023-04-01T05:06:29;9.07;92.01
57709;SHT35;42558;52.388;13.390;2023-04-01T05:09:00;9.09;92.04
57709;SHT35;42558;52.388;13.390;2023-04-01T05:11:30;9.10;92.04
57709;SHT35;42558;52.388;13.390;2023-04-01T05:14:00;9.11;92.09
57709;SHT35;42558;52.388;13.390;2023-04-01T05:16:29;9.12;92.10
57709;SHT35;42558;52.388;13.390;2023-04-01T05:18:58;9.14;92.12
57709;SHT35;42558;52.388;13.390;2023-04-01T05:21:26;9.18;92.19
57709;SHT35;42558;52.388;13.390;2023-04-01T05:23:55;9.18;92.20
57709;SHT35;42558;52.388;13.390;2023-04-01T05:26:23;9.17;92.21
57709;SHT35;42558;52.388;13.390;2023-04-01T05:28:51;9.17;92.28
57709;SHT35;42558;52.388;13.390;2023-04-01T05:31:20;9.17;92.34
57709;SHT35;42558;52.388;13.390;2023-04-01T05:33:48;9.19;92.40
57709;SHT35;42558;52.388;13.390;2023-04-01T05:36:17;9.23;92.42
57709;SHT35;42558;52.388;13.390;2023-04-01T05:38:45;9.24;92.45
57709;SHT35;42558;52.388;13.390;2023-04-01T05:41:14;9.26;92.45
57709;SHT35;42558;52.388;13.390;2023-04-01T05:43:42;9.25;92.50
57709;SHT35;42558;52.388;13.390;2023-04-01T05:46:10;9.30;92.50
57709;SHT35;42558;52.388;13.390;2023-04-01T05:48:39;9.31;92.49
57709;SHT35;42558;52.388;13.390;2023-04-01T05:51:11;9.33;92.49
57709;SHT35;42558;52.388;13.390;2023-04-01T05:53:43;9.38;92.46
57709;SHT35;42558;52.388;13.390;2023-04-01T05:56:13;9.43;92.46
57709;SHT35;42558;52.388;13.390;2023-04-01T05:58:46;9.51;92.50
57709;SHT35;42558;52.388;13.390;2023-04-01T06:01:20;9.56;92.45
57709;SHT35;42558;52.388;13.390;2023-04-01T06:03:50;9.57;92.40
57709;SHT35;42558;52.388;13.390;2023-04-01T06:06:24;9.61;92.36
57709;SHT35;42558;52.388;13.390;2023-04-01T06:09:10;9.64;92.28
57709;SHT35;42558;52.388;13.390;2023-04-01T06:12:20;9.67;92.19
57709;SHT35;42558;52.388;13.390;2023-04-01T06:24:27;9.80;91.94
57709;SHT35;42558;52.388;13.390;2023-04-01T06:42:07;10.01;91.79
57709;SHT35;42558;52.388;13.390;2023-04-01T06:45:35;9.97;91.51
57709;SHT35;42558;52.388;13.390;2023-04-01T06:51:58;10.13;91.58
57709;SHT35;42558;52.388;13.390;2023-04-01T06:54:59;10.23;91.49
57709;SHT35;42558;52.388;13.390;2023-04-01T06:57:45;10.31;91.34
57709;SHT35;42558;52.388;13.390;2023-04-01T07:00:22;10.37;90.89
57709;SHT35;42558;52.388;13.390;2023-04-01T07:03:10;10.56;90.98
57709;SHT35;42558;52.388;13.390;2023-04-01T07:06:05;10.68;90.51
57709;SHT35;42558;52.388;13.390;2023-04-01T07:08:43;10.86;90.15
57709;SHT35;42558;52.388;13.390;2023-04-01T07:11:21;10.90;89.57
57709;SHT35;42558;52.388;13.390;2023-04-01T07:14:04;11.02;89.20
57709;SHT35;42558;52.388;13.390;2023-04-01T07:19:52;11.03;87.71
57709;SHT35;42558;52.388;13.390;2023-04-01T07:22:50;11.17;88.11
57709;SHT35;42558;52.388;13.390;2023-04-01T07:25:26;11.20;87.66
57709;SHT35;42558;52.388;13.390;2023-04-01T07:28:05;11.03;86.81
57709;SHT35;42558;52.388;13.390;2023-04-01T07:59:53;11.16;85.82
57709;SHT35;42558;52.388;13.390;2023-04-01T08:05:53;11.13;85.62
57709;SHT35;42558;52.388;13.390;2023-04-01T08:14:47;11.34;84.70
57709;SHT35;42558;52.388;13.390;2023-04-01T08:23:00;11.53;84.32
57709;SHT35;42558;52.388;13.390;2023-04-01T08:25:51;11.71;84.22
57709;SHT35;42558;52.388;13.390;2023-04-01T08:28:27;11.84;83.74
57709;SHT35;42558;52.388;13.390;2023-04-01T08:30:58;11.80;83.41
57709;SHT35;42558;52.388;13.390;2023-04-01T08:33:38;11.80;83.05
57709;SHT35;42558;52.388;13.390;2023-04-01T08:36:17;11.77;82.80
57709;SHT35;42558;52.388;13.390;2023-04-01T08:38:57;11.90;83.49
57709;SHT35;42558;52.388;13.390;2023-04-01T08:44:54;12.48;82.81
57709;SHT35;42558;52.388;13.390;2023-04-01T08:54:21;12.54;79.98
57709;SHT35;42558;52.388;13.390;2023-04-01T08:57:01;12.71;80.67
57709;SHT35;42558;52.388;13.390;2023-04-01T09:03:09;12.94;80.21
57709;SHT35;42558;52.388;13.390;2023-04-01T09:26:48;13.61;76.19
57709;SHT35;42558;52.388;13.390;2023-04-01T09:38:23;12.39;79.67
57709;SHT35;42558;52.388;13.390;2023-04-01T09:41:26;11.57;82.44
57709;SHT35;42558;52.388;13.390;2023-04-01T09:58:47;11.04;85.57
57709;SHT35;42558;52.388;13.390;2023-04-01T10:23:43;10.54;87.57
57709;SHT35;42558;52.388;13.390;2023-04-01T10:29:23;10.44;88.37
57709;SHT35;42558;52.388;13.390;2023-04-01T11:08:42;9.91;88.28
57709;SHT35;42558;52.388;13.390;2023-04-01T11:15:39;9.89;88.73
57709;SHT35;42558;52.388;13.390;2023-04-01T11:51:29;9.61;89.35
57709;SHT35;42558;52.388;13.390;2023-04-01T12:16:04;9.44;89.27
57709;SHT35;42558;52.388;13.390;2023-04-01T12:18:55;9.37;89.26
57709;SHT35;42558;52.388;13.390;2023-04-01T12:21:51;9.47;89.39
57709;SHT35;42558;52.388;13.390;2023-04-01T12:24:46;9.48;89.15
57709;SHT35;42558;52.388;13.390;2023-04-01T12:30:31;9.41;89.01
57709;SHT35;42558;52.388;13.390;2023-04-01T12:33:45;9.30;88.80
57709;SHT35;42558;52.388;13.390;2023-04-01T13:09:01;9.01;88.36
57709;SHT35;42558;52.388;13.390;2023-04-01T13:18:31;8.85;88.50
57709;SHT35;42558;52.388;13.390;2023-04-01T13:30:16;8.78;87.64
57709;SHT35;42558;52.388;13.390;2023-04-01T13:36:23;8.77;88.03
57709;SHT35;42558;52.388;13.390;2023-04-01T13:42:55;8.90;88.26
57709;SHT35;42558;52.388;13.390;2023-04-01T13:48:23;8.61;88.11
57709;SHT35;42558;52.388;13.390;2023-04-01T13:54:11;8.68;88.25
57709;SHT35;42558;52.388;13.390;2023-04-01T13:56:57;8.53;88.57
57709;SHT35;42558;52.388;13.390;2023-04-01T14:09:36;8.34;88.95
57709;SHT35;42558;52.388;13.390;2023-04-01T14:51:23;7.82;89.05
57709;SHT35;42558;52.388;13.390;2023-04-01T15:02:57;7.65;88.89
57709;SHT35;42558;52.388;13.390;2023-04-01T15:12:29;7.45;89.31
57709;SHT35;42558;52.388;13.390;2023-04-01T15:15:20;7.45;89.19
57709;SHT35;42558;52.388;13.390;2023-04-01T15:24:30;7.51;89.12
57709;SHT35;42558;52.388;13.390;2023-04-01T15:31:02;7.28;88.99
57709;SHT35;42558;52.388;13.390;2023-04-01T15:33:56;7.20;88.83
57709;SHT35;42558;52.388;13.390;2023-04-01T15:37:00;7.15;88.83
57709;SHT35;42558;52.388;13.390;2023-04-01T15:42:32;7.18;89.14
57709;SHT35;42558;52.388;13.390;2023-04-01T15:48:18;7.21;89.54
57709;SHT35;42558;52.388;13.390;2023-04-01T16:05:11;7.13;89.44
57709;SHT35;42558;52.388;13.390;2023-04-01T16:08:02;7.11;89.29
57709;SHT35;42558;52.388;13.390;2023-04-01T16:11:12;7.10;89.24
57709;SHT35;42558;52.388;13.390;2023-04-01T16:13:55;7.10;89.33
57709;SHT35;42558;52.388;13.390;2023-04-01T16:23:26;6.91;88.34
57709;SHT35;42558;52.388;13.390;2023-04-01T16:38:24;6.88;88.93
57709;SHT35;42558;52.388;13.390;2023-04-01T16:48:10;6.76;88.45
57709;SHT35;42558;52.388;13.390;2023-04-01T16:51:09;6.74;88.56
57709;SHT35;42558;52.388;13.390;2023-04-01T16:53:47;6.73;88.86
57709;SHT35;42558;52.388;13.390;2023-04-01T16:56:39;6.73;88.86
57709;SHT35;42558;52.388;13.390;2023-04-01T16:59:24;6.64;88.72
57709;SHT35;42558;52.388;13.390;2023-04-01T17:31:07;6.14;88.41
57709;SHT35;42558;52.388;13.390;2023-04-01T17:37:11;6.07;88.46
57709;SHT35;42558;52.388;13.390;2023-04-01T17:45:41;5.94;88.76
57709;SHT35;42558;52.388;13.390;2023-04-01T17:48:26;5.81;88.86
57709;SHT35;42558;52.388;13.390;2023-04-01T17:51:51;5.74;89.02
57709;SHT35;42558;52.388;13.390;2023-04-01T17:58:20;5.66;88.91
57709;SHT35;42558;52.388;13.390;2023-04-01T18:04:24;5.59;88.44
57709;SHT35;42558;52.388;13.390;2023-04-01T18:10:10;5.64;88.45
57709;SHT35;42558;52.388;13.390;2023-04-01T18:19:01;5.66;88.59
57709;SHT35;42558;52.388;13.390;2023-04-01T18:28:09;5.61;88.77
57709;SHT35;42558;52.388;13.390;2023-04-01T18:33:42;5.42;88.57
57709;SHT35;42558;52.388;13.390;2023-04-01T18:42:07;5.38;88.74
57709;SHT35;42558;52.388;13.390;2023-04-01T18:45:18;5.41;88.85
57709;SHT35;42558;52.388;13.390;2023-04-01T18:48:27;5.28;88.50
57709;SHT35;42558;52.388;13.390;2023-04-01T18:53:59;5.26;88.40
57709;SHT35;42558;52.388;13.390;2023-04-01T18:56:43;5.27;88.46
57709;SHT35;42558;52.388;13.390;2023-04-01T19:01:59;5.17;87.63
57709;SHT35;42558;52.388;13.390;2023-04-01T19:04:38;5.18;87.57
57709;SHT35;42558;52.388;13.390;2023-04-01T19:29:09;5.01;87.79
57709;SHT35;42558;52.388;13.390;2023-04-01T19:40:39;4.92;87.52
57709;SHT35;42558;52.388;13.390;2023-04-01T19:57:17;4.79;87.49
57709;SHT35;42558;52.388;13.390;2023-04-01T19:59:53;4.81;87.67
57709;SHT35;42558;52.388;13.390;2023-04-01T20:02:39;4.78;87.52
57709;SHT35;42558;52.388;13.390;2023-04-01T20:08:18;4.71;86.71
57709;SHT35;42558;52.388;13.390;2023-04-01T20:17:07;4.61;86.65
57709;SHT35;42558;52.388;13.390;2023-04-01T20:19:53;4.60;86.59
57709;SHT35;42558;52.388;13.390;2023-04-01T20:28:30;4.49;86.91
57709;SHT35;42558;52.388;13.390;2023-04-01T20:31:18;4.50;87.43
57709;SHT35;42558;52.388;13.390;2023-04-01T20:37:39;4.52;87.98
57709;SHT35;42558;52.388;13.390;2023-04-01T20:40:32;4.50;88.03
57709;SHT35;42558;52.388;13.390;2023-04-01T20:43:22;4.40;87.60
57709;SHT35;42558;52.388;13.390;2023-04-01T20:48:57;4.36;87.17
57709;SHT35;42558;52.388;13.390;2023-04-01T20:52:06;4.30;87.10
57709;SHT35;42558;52.388;13.390;2023-04-01T20:57:25;4.31;87.65
57709;SHT35;42558;52.388;13.390;2023-04-01T21:02:57;4.23;87.85
57709;SHT35;42558;52.388;13.390;2023-04-01T21:12:43;4.13;88.05
57709;SHT35;42558;52.388;13.390;2023-04-01T21:15:57;4.09;87.83
57709;SHT35;42558;52.388;13.390;2023-04-01T21:18:52;4.06;87.94
57709;SHT35;42558;52.388;13.390;2023-04-01T21:33:45;3.86;88.36
57709;SHT35;42558;52.388;13.390;2023-04-01T21:36:39;3.82;88.00
57709;SHT35;42558;52.388;13.390;2023-04-01T22:07:32;3.56;87.64
57709;SHT35;42558;52.388;13.390;2023-04-01T22:13:12;3.53;87.37
57709;SHT35;42558;52.388;13.390;2023-04-01T22:19:17;3.54;87.33
57709;SHT35;42558;52.388;13.390;2023-04-01T22:24:27;3.49;87.46
57709;SHT35;42558;52.388;13.390;2023-04-01T22:27:07;3.51;87.69
57709;SHT35;42558;52.388;13.390;2023-04-01T22:29:58;3.46;87.37
57709;SHT35;42558;52.388;13.390;2023-04-01T22:32:58;3.44;87.03
57709;SHT35;42558;52.388;13.390;2023-04-01T22:56:17;3.48;86.26
57709;SHT35;42558;52.388;13.390;2023-04-01T23:01:57;3.47;85.72
57709;SHT35;42558;52.388;13.390;2023-04-01T23:04:37;3.45;85.06
57709;SHT35;42558;52.388;13.390;2023-04-01T23:07:30;3.46;85.00
57709;SHT35;42558;52.388;13.390;2023-04-01T23:10:44;3.45;84.75
57709;SHT35;42558;52.388;13.390;2023-04-01T23:13:27;3.45;85.12
57709;SHT35;42558;52.388;13.390;2023-04-01T23:16:07;3.42;84.88
57709;SHT35;42558;52.388;13.390;2023-04-01T23:21:42;3.38;84.14
57709;SHT35;42558;52.388;13.390;2023-04-01T23:27:14;3.39;84.09
57709;SHT35;42558;52.388;13.390;2023-04-01T23:29:55;3.38;84.10
57709;SHT35;42558;52.388;13.390;2023-04-01T23:32:25;3.37;84.14
57709;SHT35;42558;52.388;13.390;2023-04-01T23:34:57;3.36;84.08
57709;SHT35;42558;52.388;13.390;2023-04-01T23:37:29;3.35;83.96
57709;SHT35;42558;52.388;13.390;2023-04-01T23:39:59;3.37;84.16
57709;SHT35;42558;52.388;13.390;2023-04-01T23:42:31;3.37;83.80
57709;SHT35;42558;52.388;13.390;2023-04-01T23:45:16;3.37;83.85
57709;SHT35;42558;52.388;13.390;2023-04-01T23:47:48;3.33;83.40
57709;SHT35;42558;52.388;13.390;2023-04-01T23:50:20;3.34;83.26
57709;SHT35;42558;52.388;13.390;2023-04-01T23:53:09;3.35;83.46
57709;SHT35;42558;52.388;13.390;2023-04-01T23:55:52;3.37;83.69
57709;SHT35;42558;52.388;13.390;2023-04-01T23:58:25;3.33;83.54
